Time;durP1;ratioP1;P1;durP2;ratioP2;P2;SDS_P1;SDS_P2;PMS_P1;PMS_P2;Temp;Humidity;BMP_temperature;BMP_pressure;BME280_temperature;BME280_humidity;BME280_pressure;Samples;Min_cycle;Max_cycle;Signal;HPM_P1;HPM_P2
2022/04/28 00:00:36;;;;;;;0.50;0.33;;;7.00;99.90;;;;;;5089092;28;20439;-92
2022/04/28 00:03:03;;;;;;;0.83;0.30;;;7.00;99.90;;;;;;5087464;28;20712;-92
2022/04/28 00:05:32;;;;;;;0.53;0.37;;;7.00;99.90;;;;;;5087842;28;20468;-93
2022/04/28 00:07:59;;;;;;;0.50;0.50;;;7.10;99.90;;;;;;5088818;28;20467;-91
2022/04/28 00:10:26;;;;;;;0.30;0.20;;;7.10;99.90;;;;;;5089990;28;20522;-92
2022/04/28 00:12:54;;;;;;;0.30;0.10;;;7.00;99.90;;;;;;5087162;28;20447;-92
2022/04/28 00:15:21;;;;;;;0.30;0.10;;;7.00;99.90;;;;;;5094508;28;20471;-92
2022/04/28 00:17:48;;;;;;;0.30;0.20;;;7.10;99.90;;;;;;5093353;28;20481;-91
2022/04/28 00:20:15;;;;;;;0.30;0.10;;;7.10;99.90;;;;;;5086555;28;20474;-91
2022/04/28 00:22:43;;;;;;;0.30;0.20;;;7.10;99.90;;;;;;5092873;28;20530;-92
2022/04/28 00:25:10;;;;;;;0.30;0.30;;;7.00;99.90;;;;;;5085655;28;20466;-92
2022/04/28 00:27:38;;;;;;;0.30;0.20;;;7.00;99.90;;;;;;5089120;28;20539;-91
2022/04/28 00:30:06;;;;;;;0.30;0.20;;;6.90;99.90;;;;;;5088216;28;20845;-92
2022/04/28 00:32:33;;;;;;;1.00;0.20;;;6.80;99.90;;;;;;5092529;28;20447;-92
2022/04/28 00:35:00;;;;;;;0.30;0.20;;;6.80;99.90;;;;;;5085357;28;20909;-92
2022/04/28 00:37:27;;;;;;;0.63;0.63;;;6.70;99.90;;;;;;5093662;28;20486;-91
2022/04/28 00:39:55;;;;;;;0.30;0.10;;;6.80;99.90;;;;;;5087328;28;20467;-92
2022/04/28 00:42:22;;;;;;;0.33;0.20;;;6.80;99.90;;;;;;5094673;28;20474;-91
2022/04/28 00:44:49;;;;;;;0.30;0.10;;;6.70;99.90;;;;;;5102166;28;20443;-91
2022/04/28 00:47:16;;;;;;;0.30;0.20;;;6.60;99.90;;;;;;5112559;28;20461;-91
2022/04/28 00:52:30;;;;;;;0.30;0.17;;;6.40;99.90;;;;;;5111588;28;20560;-92
2022/04/28 00:54:59;;;;;;;0.30;0.20;;;6.40;99.90;;;;;;5097160;28;20509;-92
2022/04/28 00:57:27;;;;;;;0.30;0.10;;;6.30;99.90;;;;;;5091892;28;20881;-92
2022/04/28 00:59:55;;;;;;;0.30;0.10;;;6.30;99.90;;;;;;5102839;28;20450;-91
2022/04/28 01:02:22;;;;;;;0.40;0.40;;;6.30;99.90;;;;;;5093791;28;20897;-91
2022/04/28 01:04:49;;;;;;;0.30;0.10;;;6.30;99.90;;;;;;5096253;28;20449;-91
2022/04/28 01:07:17;;;;;;;0.30;0.20;;;6.20;99.90;;;;;;5094334;28;20465;-92
2022/04/28 01:09:44;;;;;;;0.30;0.20;;;6.10;99.90;;;;;;5097936;28;20517;-91
2022/04/28 01:12:15;;;;;;;0.30;0.10;;;6.10;99.90;;;;;;5087474;28;20543;-91
2022/04/28 01:14:43;;;;;;;0.40;0.20;;;6.00;99.90;;;;;;5087839;28;20507;-92
2022/04/28 01:17:10;;;;;;;0.30;0.10;;;6.00;99.90;;;;;;5091737;28;20777;-92
2022/04/28 01:19:37;;;;;;;0.40;0.33;;;5.90;99.90;;;;;;5103571;28;20547;-92
2022/04/28 01:22:06;;;;;;;0.30;0.10;;;5.90;99.90;;;;;;5103278;28;20472;-90
2022/04/28 01:24:33;;;;;;;0.40;0.30;;;5.90;99.90;;;;;;5105144;28;20462;-91
2022/04/28 01:27:02;;;;;;;0.30;0.10;;;5.90;99.90;;;;;;5101657;28;20454;-90
2022/04/28 01:29:31;;;;;;;0.30;0.20;;;5.80;99.90;;;;;;5104198;28;20463;-92
2022/04/28 01:31:58;;;;;;;0.30;0.20;;;5.80;99.90;;;;;;5098506;28;20423;-93
2022/04/28 01:34:25;;;;;;;0.30;0.20;;;5.80;99.90;;;;;;5094184;28;20842;-92
2022/04/28 01:36:52;;;;;;;0.30;0.10;;;5.80;99.90;;;;;;5089304;28;20462;-92
2022/04/28 01:39:21;;;;;;;0.30;0.10;;;5.80;99.90;;;;;;5095014;28;20477;-92
2022/04/28 01:41:49;;;;;;;0.50;0.50;;;5.70;99.90;;;;;;5117708;28;20453;-92
2022/04/28 01:44:16;;;;;;;0.30;0.20;;;5.60;99.90;;;;;;5109285;28;20466;-93
2022/04/28 01:46:43;;;;;;;0.63;0.63;;;5.60;99.90;;;;;;5111412;28;20476;-92
2022/04/28 01:49:10;;;;;;;0.50;0.43;;;5.50;99.90;;;;;;5095123;28;20494;-92
2022/04/28 01:57:07;;;;;;;0.47;0.47;;;5.50;99.90;;;;;;5088312;28;21265;-92
2022/04/28 01:59:34;;;;;;;0.40;0.23;;;5.50;99.90;;;;;;5092638;28;20864;-92
2022/04/28 02:02:01;;;;;;;0.40;0.30;;;5.40;99.90;;;;;;5089557;28;20475;-92
2022/04/28 02:04:28;;;;;;;0.30;0.10;;;5.40;99.90;;;;;;5094990;28;20475;-92
2022/04/28 02:06:55;;;;;;;0.30;0.10;;;5.30;99.90;;;;;;5096139;28;20488;-92
2022/04/28 02:09:24;;;;;;;0.30;0.20;;;5.30;99.90;;;;;;5096246;28;20447;-92
2022/04/28 02:11:51;;;;;;;0.30;0.20;;;5.30;99.90;;;;;;5094563;28;20470;-92
2022/04/28 02:14:18;;;;;;;0.30;0.10;;;5.20;99.90;;;;;;5094628;28;20462;-92
2022/04/28 02:16:45;;;;;;;0.30;0.20;;;5.20;99.90;;;;;;5093158;28;20797;-92
2022/04/28 02:19:12;;;;;;;0.30;0.10;;;5.20;99.90;;;;;;5089761;28;20839;-93
2022/04/28 02:21:39;;;;;;;0.50;0.50;;;5.20;99.90;;;;;;5091007;28;20523;-92
2022/04/28 02:24:07;;;;;;;0.30;0.20;;;5.10;99.90;;;;;;5091668;28;20477;-92
2022/04/28 02:26:35;;;;;;;0.40;0.30;;;5.10;99.90;;;;;;5098194;28;20458;-92
2022/04/28 02:29:03;;;;;;;0.30;0.20;;;5.10;99.90;;;;;;5088630;28;20443;-92
2022/04/28 02:31:30;;;;;;;0.30;0.10;;;5.00;99.90;;;;;;5097058;28;20854;-92
2022/04/28 02:33:57;;;;;;;0.30;0.20;;;4.80;99.90;;;;;;5090864;28;21883;-92
2022/04/28 02:36:24;;;;;;;0.30;0.20;;;4.80;99.90;;;;;;5092924;28;20970;-92
2022/04/28 02:38:51;;;;;;;0.30;0.20;;;4.70;99.90;;;;;;5089709;28;20502;-92
2022/04/28 02:41:21;;;;;;;0.30;0.10;;;4.80;99.90;;;;;;5099099;28;20523;-92
2022/04/28 02:43:49;;;;;;;0.30;0.20;;;4.70;99.90;;;;;;5116958;27;20443;-92
2022/04/28 02:46:17;;;;;;;0.40;0.30;;;4.70;99.90;;;;;;5115122;28;20450;-92
2022/04/28 02:48:44;;;;;;;0.30;0.10;;;4.70;99.90;;;;;;5113853;28;20471;-93
2022/04/28 02:51:11;;;;;;;0.30;0.20;;;4.60;99.90;;;;;;5098050;28;20482;-91
2022/04/28 02:53:39;;;;;;;0.30;0.20;;;4.70;99.90;;;;;;5098317;28;20858;-92
2022/04/28 02:56:06;;;;;;;0.30;0.10;;;4.60;99.90;;;;;;5095856;28;20463;-92
2022/04/28 02:58:33;;;;;;;1.37;0.80;;;4.60;99.90;;;;;;5089762;28;20563;-92
2022/04/28 03:01:02;;;;;;;0.30;0.10;;;4.60;99.90;;;;;;5091653;28;20477;-92
2022/04/28 03:03:29;;;;;;;0.30;0.10;;;4.50;99.90;;;;;;5093837;28;20898;-92
2022/04/28 03:11:25;;;;;;;0.40;0.40;;;4.50;99.90;;;;;;5092887;28;20462;-92
2022/04/28 03:13:52;;;;;;;0.57;0.57;;;4.40;99.90;;;;;;5090281;28;20462;-92
2022/04/28 03:16:20;;;;;;;0.30;0.10;;;4.50;99.90;;;;;;5090214;28;20464;-92
2022/04/28 03:18:47;;;;;;;0.30;0.10;;;4.40;99.90;;;;;;5098051;28;20493;-92
2022/04/28 03:21:15;;;;;;;0.30;0.10;;;4.50;99.90;;;;;;5097042;28;20470;-92
2022/04/28 03:23:42;;;;;;;1.07;0.27;;;4.40;99.90;;;;;;5099453;28;20496;-92
2022/04/28 03:26:09;;;;;;;0.30;0.10;;;4.30;99.90;;;;;;5098818;28;20869;-92
2022/04/28 03:28:38;;;;;;;1.63;0.60;;;4.30;99.90;;;;;;5099064;28;20500;-93
2022/04/28 03:31:05;;;;;;;0.40;0.20;;;4.30;99.90;;;;;;5099413;28;20565;-93
2022/04/28 03:33:34;;;;;;;0.30;0.10;;;4.30;99.90;;;;;;5088838;28;20455;-90
2022/04/28 03:36:01;;;;;;;0.30;0.20;;;4.40;99.90;;;;;;5095476;28;20471;-90
2022/04/28 03:38:28;;;;;;;0.30;0.10;;;4.30;99.90;;;;;;5100907;28;20546;-90
2022/04/28 03:40:55;;;;;;;0.30;0.10;;;4.20;99.90;;;;;;5099203;28;20458;-90
2022/04/28 03:43:25;;;;;;;0.30;0.20;;;4.10;99.90;;;;;;5099948;28;20470;-90
2022/04/28 03:45:52;;;;;;;0.30;0.10;;;4.10;99.90;;;;;;5093283;28;20455;-90
2022/04/28 03:48:19;;;;;;;0.30;0.20;;;4.10;99.90;;;;;;5097091;28;20458;-89
2022/04/28 03:50:47;;;;;;;0.30;0.20;;;4.10;99.90;;;;;;5103372;28;20496;-92
2022/04/28 03:53:14;;;;;;;0.40;0.30;;;4.20;99.90;;;;;;5110920;28;20459;-93
2022/04/28 03:55:41;;;;;;;0.30;0.10;;;4.20;99.90;;;;;;5122347;28;20435;-92
2022/04/28 03:58:08;;;;;;;0.30;0.10;;;4.30;99.90;;;;;;5105722;28;20534;-92
2022/04/28 04:00:35;;;;;;;0.30;0.20;;;4.30;99.90;;;;;;5097983;28;20497;-92
2022/04/28 04:03:02;;;;;;;0.30;0.20;;;4.40;99.90;;;;;;5092442;28;20474;-92
2022/04/28 04:05:29;;;;;;;0.30;0.10;;;4.50;99.90;;;;;;5088659;28;20523;-91
2022/04/28 04:07:58;;;;;;;0.30;0.10;;;4.50;99.90;;;;;;5090610;28;20466;-92
2022/04/28 04:10:25;;;;;;;0.40;0.20;;;4.40;99.90;;;;;;5090250;27;20455;-92
2022/04/28 04:12:52;;;;;;;0.30;0.30;;;4.40;99.90;;;;;;5087133;28;20466;-89
2022/04/28 04:15:19;;;;;;;0.30;0.20;;;4.50;99.90;;;;;;5088513;28;20467;-90
2022/04/28 04:17:46;;;;;;;0.30;0.17;;;4.50;99.90;;;;;;5093391;28;20439;-90
2022/04/28 04:20:14;;;;;;;0.30;0.10;;;4.60;99.90;;;;;;5099364;28;20965;-89
2022/04/28 04:22:42;;;;;;;0.30;0.20;;;4.60;99.90;;;;;;5098538;28;20847;-90
2022/04/28 04:25:10;;;;;;;0.40;0.30;;;4.70;99.90;;;;;;5119762;28;20486;-90
2022/04/28 04:27:37;;;;;;;0.30;0.10;;;4.80;99.90;;;;;;5113474;28;20435;-90
2022/04/28 04:32:46;;;;;;;0.30;0.13;;;5.00;99.90;;;;;;5119269;28;20494;-90
2022/04/28 04:35:13;;;;;;;0.40;0.40;;;5.10;99.90;;;;;;5110752;28;21016;-90
2022/04/28 04:37:41;;;;;;;1.80;1.80;;;5.10;99.90;;;;;;5092913;28;20447;-91
2022/04/28 04:40:11;;;;;;;0.40;0.30;;;5.20;99.90;;;;;;5102570;28;20575;-91
2022/04/28 04:42:38;;;;;;;0.40;0.30;;;5.20;99.90;;;;;;5091436;28;20477;-90
2022/04/28 04:45:07;;;;;;;0.50;0.50;;;5.30;99.90;;;;;;5094822;28;20459;-91
2022/04/28 04:47:34;;;;;;;0.40;0.30;;;5.30;99.90;;;;;;5092905;28;20515;-91
2022/04/28 04:50:01;;;;;;;0.30;0.10;;;5.40;99.90;;;;;;5095097;28;20881;-91
2022/04/28 04:52:28;;;;;;;0.40;0.30;;;5.50;99.90;;;;;;5092619;28;20523;-91
2022/04/28 04:54:55;;;;;;;0.40;0.30;;;5.60;99.90;;;;;;5104556;28;20461;-90
2022/04/28 04:57:23;;;;;;;0.30;0.13;;;5.70;99.90;;;;;;5107241;28;20468;-90
2022/04/28 04:59:50;;;;;;;0.30;0.20;;;5.70;99.90;;;;;;5094619;28;20486;-90
2022/04/28 05:02:17;;;;;;;0.33;0.17;;;5.90;99.90;;;;;;5093879;28;20534;-90
2022/04/28 05:04:44;;;;;;;0.87;0.73;;;5.90;99.90;;;;;;5093485;28;20523;-90
2022/04/28 05:07:11;;;;;;;0.30;0.10;;;6.00;99.90;;;;;;5085969;28;20465;-90
2022/04/28 05:09:38;;;;;;;0.30;0.20;;;6.10;99.90;;;;;;5104155;28;20465;-90
2022/04/28 05:12:06;;;;;;;0.40;0.37;;;6.00;99.90;;;;;;5096795;28;21170;-90
2022/04/28 05:14:35;;;;;;;0.30;0.20;;;6.20;99.90;;;;;;5090999;28;20466;-90
2022/04/28 05:17:04;;;;;;;0.30;0.20;;;6.30;99.90;;;;;;5090836;28;20468;-93
2022/04/28 05:19:31;;;;;;;0.30;0.10;;;6.50;99.90;;;;;;5094911;28;20580;-92
2022/04/28 05:21:58;;;;;;;0.40;0.30;;;6.60;99.90;;;;;;5094491;28;20461;-91
2022/04/28 05:24:25;;;;;;;0.30;0.10;;;6.70;99.90;;;;;;5103278;28;20461;-90
2022/04/28 05:26:52;;;;;;;0.73;0.67;;;6.80;99.90;;;;;;5092754;28;20527;-91
2022/04/28 05:29:19;;;;;;;0.37;0.27;;;7.00;99.90;;;;;;5101631;28;20495;-91
2022/04/28 05:31:47;;;;;;;0.30;0.10;;;7.20;99.90;;;;;;5096695;28;20541;-91
2022/04/28 05:34:14;;;;;;;0.30;0.20;;;7.20;99.90;;;;;;5097470;28;20524;-90
2022/04/28 05:36:43;;;;;;;0.30;0.20;;;7.30;99.90;;;;;;5097692;28;20579;-91
2022/04/28 05:39:10;;;;;;;0.30;0.10;;;7.20;99.90;;;;;;5095815;27;20478;-91
2022/04/28 05:41:37;;;;;;;0.30;0.10;;;7.40;99.90;;;;;;5091495;28;20854;-92
2022/04/28 05:46:52;;;;;;;0.30;0.10;;;7.90;99.90;;;;;;5096997;28;20462;-92
2022/04/28 05:49:19;;;;;;;0.30;0.20;;;8.00;99.90;;;;;;5096747;28;20486;-93
2022/04/28 05:51:46;;;;;;;0.30;0.20;;;7.90;99.90;;;;;;5099877;28;20465;-93
2022/04/28 05:54:14;;;;;;;0.30;0.20;;;7.70;99.90;;;;;;5108462;28;21022;-91
2022/04/28 05:56:42;;;;;;;0.30;0.20;;;7.70;99.90;;;;;;5098114;28;20896;-92
2022/04/28 05:59:09;;;;;;;1.17;0.67;;;7.80;99.90;;;;;;5106294;27;20500;-91
2022/04/28 06:01:36;;;;;;;0.30;0.10;;;7.90;99.90;;;;;;5100150;28;20561;-91
2022/04/28 06:04:06;;;;;;;0.40;0.20;;;7.80;99.90;;;;;;5102320;28;20469;-91
2022/04/28 06:06:33;;;;;;;0.30;0.20;;;7.70;99.90;;;;;;5093402;28;20469;-91
2022/04/28 06:09:00;;;;;;;0.30;0.20;;;7.70;99.90;;;;;;5094577;27;21000;-91
2022/04/28 06:11:28;;;;;;;0.80;0.50;;;7.70;99.90;;;;;;5101381;28;20806;-91
2022/04/28 06:13:55;;;;;;;0.30;0.20;;;7.70;99.90;;;;;;5103903;28;20560;-91
2022/04/28 06:16:22;;;;;;;0.30;0.20;;;7.90;99.90;;;;;;5120789;28;20462;-91
2022/04/28 06:18:49;;;;;;;0.30;0.10;;;8.10;99.90;;;;;;5121621;28;20509;-91
2022/04/28 06:21:18;;;;;;;0.30;0.20;;;8.40;99.90;;;;;;5121425;28;20507;-91
2022/04/28 06:23:45;;;;;;;0.30;0.20;;;8.60;99.90;;;;;;5110561;28;20465;-90
2022/04/28 06:26:13;;;;;;;0.30;0.10;;;8.60;99.90;;;;;;5109454;28;20494;-90
2022/04/28 06:28:41;;;;;;;0.30;0.20;;;9.00;99.90;;;;;;5108716;28;20495;-91
2022/04/28 06:31:08;;;;;;;0.30;0.20;;;8.90;99.90;;;;;;5117738;27;20460;-91
2022/04/28 06:33:35;;;;;;;0.30;0.20;;;9.00;99.90;;;;;;5106492;28;20487;-90
2022/04/28 06:36:02;;;;;;;0.60;0.30;;;9.20;99.90;;;;;;5110379;28;20537;-91
2022/04/28 06:38:31;;;;;;;0.53;0.20;;;9.20;99.90;;;;;;5105946;28;20947;-91
2022/04/28 06:40:58;;;;;;;0.50;0.50;;;9.60;99.90;;;;;;5096047;28;20486;-91
2022/04/28 06:43:25;;;;;;;0.30;0.10;;;9.80;99.90;;;;;;5088951;28;20463;-91
2022/04/28 06:48:36;;;;;;;0.30;0.10;;;10.10;99.90;;;;;;5097447;27;20448;-91
2022/04/28 06:51:03;;;;;;;0.30;0.20;;;10.00;99.90;;;;;;5101665;27;20455;-90
2022/04/28 06:53:31;;;;;;;0.30;0.20;;;10.10;99.90;;;;;;5111709;28;20502;-91
2022/04/28 06:55:59;;;;;;;0.60;0.30;;;9.90;99.90;;;;;;5126643;28;20479;-91
2022/04/28 06:58:26;;;;;;;0.30;0.20;;;10.10;99.90;;;;;;5125495;28;20469;-90
2022/04/28 07:00:53;;;;;;;0.40;0.20;;;10.50;99.90;;;;;;5119870;28;20494;-91
2022/04/28 07:03:20;;;;;;;1.37;0.80;;;10.60;99.90;;;;;;5097544;28;20657;-92
2022/04/28 07:05:47;;;;;;;0.30;0.20;;;11.10;99.90;;;;;;5094007;28;20468;-92
2022/04/28 07:08:14;;;;;;;0.30;0.10;;;11.30;99.90;;;;;;5109949;28;20447;-90
2022/04/28 07:10:48;;;;;;;0.30;0.20;;;11.30;99.90;;;;;;5119353;28;20596;-93
2022/04/28 07:13:15;;;;;;;0.30;0.20;;;11.10;99.90;;;;;;5120800;27;20439;-92
2022/04/28 07:15:42;;;;;;;0.30;0.20;;;11.20;99.90;;;;;;5123285;28;20463;-92
2022/04/28 07:18:11;;;;;;;1.30;0.50;;;11.30;99.90;;;;;;5124635;28;20479;-89
2022/04/28 07:20:39;;;;;;;0.40;0.30;;;11.20;99.90;;;;;;5121744;28;20584;-88
2022/04/28 07:23:06;;;;;;;0.30;0.20;;;11.30;99.90;;;;;;5103925;28;20876;-90
2022/04/28 07:25:34;;;;;;;0.70;0.60;;;11.30;99.90;;;;;;5093990;28;20551;-89
2022/04/28 07:28:02;;;;;;;0.90;0.90;;;11.40;99.90;;;;;;5093423;28;20854;-90
2022/04/28 07:30:29;;;;;;;0.30;0.10;;;11.40;99.90;;;;;;5090473;28;20471;-89
2022/04/28 07:32:56;;;;;;;0.40;0.20;;;11.40;99.90;;;;;;5098275;28;21032;-89
2022/04/28 07:35:25;;;;;;;0.40;0.20;;;11.70;99.90;;;;;;5091674;28;20538;-89
2022/04/28 07:37:52;;;;;;;0.40;0.20;;;11.70;99.90;;;;;;5096683;28;20472;-89
2022/04/28 07:40:19;;;;;;;0.30;0.20;;;11.90;99.90;;;;;;5091159;27;20492;-89
2022/04/28 07:42:46;;;;;;;6.20;0.80;;;11.90;99.90;;;;;;5099093;28;20519;-89
2022/04/28 07:45:15;;;;;;;0.73;0.60;;;11.90;99.90;;;;;;5088812;28;20808;-89
2022/04/28 07:47:42;;;;;;;0.40;0.30;;;12.10;99.90;;;;;;5105667;28;20497;-92
2022/04/28 07:50:10;;;;;;;0.30;0.20;;;12.10;99.90;;;;;;5096721;28;20489;-92
2022/04/28 07:52:38;;;;;;;0.30;0.20;;;12.30;99.90;;;;;;5100453;28;20512;-92
2022/04/28 07:55:06;;;;;;;0.50;0.50;;;12.60;99.90;;;;;;5093046;28;20472;-92
2022/04/28 07:57:33;;;;;;;1.83;0.40;;;12.60;99.90;;;;;;5091607;28;20459;-91
2022/04/28 08:00:00;;;;;;;0.30;0.20;;;12.80;99.90;;;;;;5090499;28;21054;-92
2022/04/28 08:02:29;;;;;;;0.63;0.60;;;12.70;99.90;;;;;;5102348;28;20538;-92
2022/04/28 08:04:56;;;;;;;0.30;0.20;;;12.70;99.90;;;;;;5087647;28;20467;-91
2022/04/28 08:07:23;;;;;;;0.40;0.40;;;12.80;99.90;;;;;;5087023;28;20469;-91
2022/04/28 08:09:51;;;;;;;0.60;0.50;;;12.90;99.90;;;;;;5093804;28;20486;-92
2022/04/28 08:12:18;;;;;;;0.97;0.50;;;13.20;99.90;;;;;;5091116;28;20467;-91
2022/04/28 08:14:45;;;;;;;0.40;0.30;;;13.10;99.90;;;;;;5093265;28;20537;-92
2022/04/28 08:17:13;;;;;;;1.10;0.70;;;13.20;99.90;;;;;;5087196;28;20470;-92
2022/04/28 08:19:41;;;;;;;0.30;0.20;;;13.00;99.90;;;;;;5088886;28;21172;-92
2022/04/28 08:22:08;;;;;;;0.47;0.47;;;13.20;99.90;;;;;;5090096;28;21000;-92
2022/04/28 08:24:35;;;;;;;1.17;0.50;;;13.20;99.90;;;;;;5087858;28;20551;-91
2022/04/28 08:27:03;;;;;;;0.40;0.40;;;13.50;99.90;;;;;;5090498;28;20478;-92
2022/04/28 08:29:30;;;;;;;0.60;0.60;;;13.60;99.90;;;;;;5090621;28;20519;-92
2022/04/28 08:31:57;;;;;;;0.70;0.50;;;13.70;99.90;;;;;;5089478;28;20538;-92
2022/04/28 08:34:24;;;;;;;0.40;0.30;;;13.80;99.90;;;;;;5085204;28;20461;-92
2022/04/28 08:36:52;;;;;;;0.50;0.50;;;13.80;99.90;;;;;;5087892;28;20530;-93
2022/04/28 08:39:19;;;;;;;0.30;0.20;;;14.10;99.80;;;;;;5085454;28;20454;-92
2022/04/28 08:41:47;;;;;;;0.53;0.53;;;14.40;99.90;;;;;;5088362;28;20494;-91
2022/04/28 08:44:18;;;;;;;0.30;0.23;;;14.60;99.90;;;;;;5087244;28;20466;-92
2022/04/28 08:46:51;;;;;;;0.40;0.30;;;14.60;99.80;;;;;;5098620;27;20567;-92
2022/04/28 08:49:20;;;;;;;0.60;0.30;;;14.50;99.30;;;;;;5091207;28;20865;-91
2022/04/28 08:51:47;;;;;;;0.40;0.30;;;14.70;97.70;;;;;;5091802;28;20467;-91
2022/04/28 08:54:16;;;;;;;1.30;0.50;;;14.80;97.50;;;;;;5096925;28;20527;-92
2022/04/28 08:56:43;;;;;;;0.60;0.40;;;14.50;97.50;;;;;;5091791;28;20474;-92
2022/04/28 08:59:10;;;;;;;0.60;0.43;;;14.40;97.30;;;;;;5099339;28;20481;-92
2022/04/28 09:01:37;;;;;;;0.50;0.40;;;14.20;96.40;;;;;;5101124;28;20536;-92
2022/04/28 09:04:05;;;;;;;0.60;0.50;;;14.10;94.80;;;;;;5101611;28;20492;-92
2022/04/28 09:06:35;;;;;;;1.13;0.80;;;14.30;96.10;;;;;;5104626;28;20459;-93
2022/04/28 09:09:04;;;;;;;1.50;0.40;;;14.10;96.70;;;;;;5105209;28;20462;-93
2022/04/28 09:11:35;;;;;;;0.30;0.20;;;14.10;97.50;;;;;;5099932;28;20494;-92
2022/04/28 09:14:11;;;;;;;0.40;0.30;;;13.90;98.20;;;;;;5094219;28;20461;-92
2022/04/28 09:16:40;;;;;;;0.37;0.23;;;13.80;97.20;;;;;;5085896;28;20474;-92
2022/04/28 09:19:07;;;;;;;0.87;0.43;;;14.00;96.80;;;;;;5088368;28;20491;-93
2022/04/28 09:21:35;;;;;;;0.33;0.27;;;14.20;97.60;;;;;;5096646;28;20539;-93
2022/04/28 09:24:03;;;;;;;0.30;0.27;;;14.20;96.20;;;;;;5105367;28;20553;-92
2022/04/28 09:26:32;;;;;;;0.40;0.30;;;14.40;95.50;;;;;;5092114;28;20546;-92
2022/04/28 09:29:03;;;;;;;0.40;0.30;;;14.20;95.60;;;;;;5093648;28;20502;-92
2022/04/28 09:31:33;;;;;;;0.97;0.87;;;14.30;94.50;;;;;;5090796;28;20455;-90
2022/04/28 09:34:06;;;;;;;0.80;0.70;;;14.70;93.10;;;;;;5090751;28;20466;-92
2022/04/28 09:36:34;;;;;;;0.70;0.70;;;15.10;93.20;;;;;;5097574;28;20468;-91
2022/04/28 09:39:01;;;;;;;0.80;0.30;;;15.60;93.30;;;;;;5098772;28;20906;-92
2022/04/28 09:44:16;;;;;;;0.63;0.40;;;15.40;90.80;;;;;;5109307;28;21304;-92
2022/04/28 09:46:44;;;;;;;0.60;0.60;;;15.60;93.50;;;;;;5106089;28;20474;-91
2022/04/28 09:49:12;;;;;;;2.40;0.40;;;15.60;89.30;;;;;;5117233;28;20445;-92
2022/04/28 09:51:40;;;;;;;0.50;0.50;;;15.70;91.10;;;;;;5113228;28;20445;-91
2022/04/28 09:54:10;;;;;;;3.77;0.40;;;16.10;89.50;;;;;;5118710;28;20455;-89
2022/04/28 09:56:38;;;;;;;0.43;0.43;;;16.20;83.90;;;;;;5116648;28;20500;-90
2022/04/28 09:59:08;;;;;;;0.40;0.30;;;16.20;86.50;;;;;;5113352;28;20443;-88
2022/04/28 10:01:38;;;;;;;0.40;0.37;;;16.50;88.20;;;;;;5111504;28;20493;-88
2022/04/28 10:04:06;;;;;;;0.43;0.40;;;16.80;87.00;;;;;;5126817;28;20445;-90
2022/04/28 10:06:35;;;;;;;0.30;0.20;;;16.80;83.50;;;;;;5099421;28;21091;-89
2022/04/28 10:09:06;;;;;;;0.60;0.50;;;16.80;88.40;;;;;;5104751;28;20638;-90
2022/04/28 10:11:33;;;;;;;2.00;0.50;;;16.80;80.10;;;;;;5102227;28;20673;-91
2022/04/28 10:14:01;;;;;;;0.30;0.20;;;16.30;83.80;;;;;;5092977;28;20462;-91
2022/04/28 10:16:43;;;;;;;0.40;0.40;;;16.40;82.30;;;;;;5089340;28;20462;-92
2022/04/28 10:19:16;;;;;;;0.80;0.80;;;16.50;87.70;;;;;;5103565;28;20484;-93
2022/04/28 10:21:48;;;;;;;0.40;0.40;;;16.40;80.50;;;;;;5095892;28;20482;-90
2022/04/28 10:32:57;;;;;;;1.13;0.60;;;17.40;77.40;;;;;;5086423;28;20452;-91
2022/04/28 10:35:39;;;;;;;0.70;0.50;;;17.30;76.80;;;;;;5090688;28;20495;-91
2022/04/28 10:38:10;;;;;;;0.60;0.50;;;17.40;78.20;;;;;;5094510;28;20473;-91
2022/04/28 10:40:39;;;;;;;0.60;0.57;;;17.10;74.30;;;;;;5093752;28;20500;-92
2022/04/28 10:43:23;;;;;;;0.70;0.70;;;17.20;75.00;;;;;;5089060;28;20498;-92
2022/04/28 10:45:51;;;;;;;0.40;0.30;;;17.40;82.00;;;;;;5094375;28;20459;-90
2022/04/28 10:48:29;;;;;;;0.60;0.60;;;17.10;73.90;;;;;;5085566;28;20460;-91
2022/04/28 10:51:13;;;;;;;1.23;1.20;;;16.50;74.80;;;;;;5083957;28;20467;-91
2022/04/28 10:54:00;;;;;;;0.40;0.37;;;16.50;73.60;;;;;;5091662;28;20492;-92
2022/04/28 10:56:28;;;;;;;1.37;0.53;;;16.60;73.00;;;;;;5093568;28;20827;-91
2022/04/28 10:59:00;;;;;;;0.40;0.30;;;16.60;73.20;;;;;;5088233;28;20506;-91
2022/04/28 11:01:30;;;;;;;0.60;0.30;;;16.40;77.20;;;;;;5093913;27;20502;-94
2022/04/28 11:04:01;;;;;;;0.40;0.30;;;16.10;75.30;;;;;;5097337;28;20467;-91
2022/04/28 11:06:31;;;;;;;0.50;0.30;;;15.90;76.50;;;;;;5102324;28;20479;-91
2022/04/28 11:09:00;;;;;;;0.97;0.37;;;15.90;80.00;;;;;;5106503;27;20473;-92
2022/04/28 11:11:30;;;;;;;0.77;0.57;;;15.60;75.30;;;;;;5108137;28;20454;-92
2022/04/28 11:13:59;;;;;;;0.40;0.30;;;15.50;75.00;;;;;;5096601;28;20525;-92
2022/04/28 11:16:27;;;;;;;3.73;0.67;;;15.40;76.70;;;;;;5092551;28;21021;-92
2022/04/28 11:18:55;;;;;;;0.50;0.30;;;15.40;79.00;;;;;;5094105;28;20913;-92
2022/04/28 11:21:24;;;;;;;0.50;0.47;;;15.30;83.10;;;;;;5091975;28;20487;-92
2022/04/28 11:23:53;;;;;;;0.30;0.20;;;15.10;79.20;;;;;;5090130;28;20469;-91
2022/04/28 11:26:24;;;;;;;0.40;0.30;;;15.00;75.30;;;;;;5091267;28;20469;-91
2022/04/28 11:28:52;;;;;;;0.40;0.40;;;15.00;76.60;;;;;;5094573;28;20478;-92
2022/04/28 11:31:20;;;;;;;0.40;0.30;;;15.10;78.60;;;;;;5090636;28;20848;-90
2022/04/28 11:33:50;;;;;;;0.40;0.20;;;15.00;70.70;;;;;;5088655;28;20467;-90
2022/04/28 11:36:20;;;;;;;4.10;0.30;;;15.20;74.60;;;;;;5089164;27;20484;-91
2022/04/28 11:38:55;;;;;;;0.40;0.30;;;15.60;75.00;;;;;;5089418;28;20800;-90
2022/04/28 11:41:39;;;;;;;0.40;0.30;;;15.70;72.50;;;;;;5089759;28;20544;-91
2022/04/28 11:44:08;;;;;;;1.77;1.63;;;15.80;73.90;;;;;;5090972;28;20543;-90
2022/04/28 11:46:38;;;;;;;0.40;0.30;;;15.90;73.70;;;;;;5086590;28;20489;-91
2022/04/28 11:49:05;;;;;;;0.40;0.30;;;16.00;72.10;;;;;;5091495;27;20586;-92
2022/04/28 11:51:35;;;;;;;0.30;0.20;;;15.90;69.90;;;;;;5080125;28;20471;-92
2022/04/28 11:54:04;;;;;;;0.87;0.37;;;16.10;72.70;;;;;;5084872;28;20515;-92
2022/04/28 11:56:33;;;;;;;0.40;0.30;;;15.80;69.70;;;;;;5086616;28;20540;-92
2022/04/28 11:59:05;;;;;;;0.50;0.50;;;15.80;68.40;;;;;;5088646;28;20469;-92
2022/04/28 12:01:33;;;;;;;0.30;0.20;;;16.00;69.40;;;;;;5089246;28;20481;-92
2022/04/28 12:04:01;;;;;;;1.27;0.40;;;15.80;67.30;;;;;;5093666;28;20526;-92
2022/04/28 12:06:29;;;;;;;0.40;0.40;;;15.70;67.80;;;;;;5100582;28;20549;-92
2022/04/28 12:08:57;;;;;;;0.33;0.30;;;16.20;71.30;;;;;;5090746;28;20992;-92
2022/04/28 12:14:25;;;;;;;1.03;1.03;;;16.60;70.10;;;;;;5097271;28;20822;-92
2022/04/28 12:19:54;;;;;;;1.43;0.60;;;16.90;72.90;;;;;;5107756;28;20818;-92
2022/04/28 12:22:37;;;;;;;0.60;0.40;;;17.40;73.70;;;;;;5100713;28;20486;-92
2022/04/28 12:25:09;;;;;;;0.40;0.30;;;18.10;69.10;;;;;;5093611;28;20470;-92
2022/04/28 12:27:45;;;;;;;0.50;0.30;;;18.90;67.70;;;;;;5095036;28;20467;-92
2022/04/28 12:30:14;;;;;;;0.70;0.70;;;19.10;64.80;;;;;;5097681;28;20464;-92
2022/04/28 12:32:44;;;;;;;1.00;0.70;;;18.80;65.40;;;;;;5119835;28;20447;-92
2022/04/28 12:35:20;;;;;;;1.17;0.60;;;18.80;64.80;;;;;;5116804;28;20482;-92
2022/04/28 12:37:47;;;;;;;0.50;0.37;;;18.30;63.20;;;;;;5117537;28;20442;-92
2022/04/28 12:40:19;;;;;;;0.60;0.60;;;18.10;67.00;;;;;;5116585;28;20702;-92
2022/04/28 12:42:49;;;;;;;3.80;1.83;;;17.90;69.40;;;;;;5109001;28;20481;-92
2022/04/28 12:45:34;;;;;;;1.53;1.43;;;17.60;68.70;;;;;;5116663;28;20454;-92
2022/04/28 12:48:01;;;;;;;1.03;0.53;;;17.20;70.60;;;;;;5114251;28;20493;-93
2022/04/28 12:50:28;;;;;;;2.60;0.93;;;17.70;70.50;;;;;;5118481;27;20442;-91
2022/04/28 12:52:56;;;;;;;0.40;0.40;;;17.60;64.80;;;;;;5098488;28;20469;-92
2022/04/28 12:55:23;;;;;;;1.77;0.67;;;17.50;61.30;;;;;;5092139;28;20485;-91
2022/04/28 12:57:53;;;;;;;0.50;0.47;;;18.00;68.70;;;;;;5087712;28;20478;-92
2022/04/28 13:00:29;;;;;;;1.60;1.40;;;18.10;63.00;;;;;;5089292;28;21026;-94
2022/04/28 13:02:56;;;;;;;0.40;0.33;;;18.50;64.00;;;;;;5092001;28;21014;-92
2022/04/28 13:05:24;;;;;;;0.40;0.33;;;18.20;63.40;;;;;;5094698;28;21004;-92
2022/04/28 13:07:51;;;;;;;0.40;0.30;;;17.80;61.20;;;;;;5091625;28;21047;-92
2022/04/28 13:10:18;;;;;;;1.10;0.53;;;17.80;67.60;;;;;;5095073;28;20496;-92
2022/04/28 13:12:45;;;;;;;0.40;0.30;;;17.90;64.50;;;;;;5101463;28;21151;-93
2022/04/28 13:15:15;;;;;;;0.60;0.53;;;17.80;61.70;;;;;;5120207;28;20466;-92
2022/04/28 13:17:42;;;;;;;0.97;0.50;;;17.90;60.90;;;;;;5112754;28;20458;-93
2022/04/28 13:20:11;;;;;;;0.60;0.50;;;17.90;62.70;;;;;;5101902;28;20489;-93
2022/04/28 13:22:38;;;;;;;6.63;0.77;;;17.80;64.80;;;;;;5087357;28;20487;-92
2022/04/28 13:25:16;;;;;;;3.60;0.47;;;17.80;61.20;;;;;;5088425;28;21033;-91
2022/04/28 13:27:43;;;;;;;1.23;1.23;;;17.60;64.60;;;;;;5086533;28;20549;-90
2022/04/28 13:30:11;;;;;;;0.30;0.20;;;17.30;65.50;;;;;;5089534;28;20470;-91
2022/04/28 13:32:39;;;;;;;0.40;0.30;;;17.10;62.80;;;;;;5089519;28;20508;-92
2022/04/28 13:35:08;;;;;;;0.50;0.30;;;16.90;61.80;;;;;;5090435;28;20469;-90
2022/04/28 13:37:35;;;;;;;0.50;0.30;;;17.00;64.90;;;;;;5083928;28;20461;-92